sensor_id;sensor_type;location;lat;lon;timestamp;P1;durP1;ratioP1;P2;durP2;ratioP2
18503;SDS011;9381;54.244;10.074;2023-12-22T00:01:03;17.13;;;4.07;;
18503;SDS011;9381;54.244;10.074;2023-12-22T00:06:03;18.83;;;4.07;;
18503;SDS011;9381;54.244;10.074;2023-12-22T00:11:04;22.90;;;3.67;;
18503;SDS011;9381;54.244;10.074;2023-12-22T00:16:04;15.67;;;3.83;;
18503;SDS011;9381;54.244;10.074;2023-12-22T00:21:05;17.20;;;3.53;;
18503;SDS011;9381;54.244;10.074;2023-12-22T00:26:09;21.90;;;4.30;;
18503;SDS011;9381;54.244;10.074;2023-12-22T00:31:10;14.23;;;3.70;;
18503;SDS011;9381;54.244;10.074;2023-12-22T00:36:12;22.30;;;4.10;;
18503;SDS011;9381;54.244;10.074;2023-12-22T00:41:12;21.90;;;4.33;;
18503;SDS011;9381;54.244;10.074;2023-12-22T00:46:13;21.53;;;4.07;;
18503;SDS011;9381;54.244;10.074;2023-12-22T00:51:13;19.73;;;4.00;;
18503;SDS011;9381;54.244;10.074;2023-12-22T00:56:14;20.10;;;3.73;;
18503;SDS011;9381;54.244;10.074;2023-12-22T01:01:14;18.13;;;3.87;;
18503;SDS011;9381;54.244;10.074;2023-12-22T01:06:14;14.47;;;3.40;;
18503;SDS011;9381;54.244;10.074;2023-12-22T01:11:18;17.20;;;3.60;;
18503;SDS011;9381;54.244;10.074;2023-12-22T01:16:18;22.57;;;4.07;;
18503;SDS011;9381;54.244;10.074;2023-12-22T01:21:21;27.17;;;4.63;;
18503;SDS011;9381;54.244;10.074;2023-12-22T01:26:22;15.87;;;4.00;;
18503;SDS011;9381;54.244;10.074;2023-12-22T01:31:22;22.73;;;4.77;;
18503;SDS011;9381;54.244;10.074;2023-12-22T01:36:22;33.13;;;4.93;;
18503;SDS011;9381;54.244;10.074;2023-12-22T01:41:22;24.45;;;5.43;;
18503;SDS011;9381;54.244;10.074;2023-12-22T01:46:23;25.10;;;4.57;;
18503;SDS011;9381;54.244;10.074;2023-12-22T01:51:23;18.67;;;4.43;;
18503;SDS011;9381;54.244;10.074;2023-12-22T01:56:24;22.43;;;4.00;;
18503;SDS011;9381;54.244;10.074;2023-12-22T02:01:25;18.77;;;3.60;;
18503;SDS011;9381;54.244;10.074;2023-12-22T02:06:27;21.63;;;4.83;;
18503;SDS011;9381;54.244;10.074;2023-12-22T02:11:30;19.20;;;4.33;;
18503;SDS011;9381;54.244;10.074;2023-12-22T02:22:06;29.47;;;4.93;;
18503;SDS011;9381;54.244;10.074;2023-12-22T02:32:25;11.23;;;2.70;;
18503;SDS011;9381;54.244;10.074;2023-12-22T02:37:30;6.80;;;1.70;;
18503;SDS011;9381;54.244;10.074;2023-12-22T02:42:32;7.53;;;1.50;;
18503;SDS011;9381;54.244;10.074;2023-12-22T02:47:33;11.63;;;2.10;;
18503;SDS011;9381;54.244;10.074;2023-12-22T02:52:34;5.53;;;1.70;;
18503;SDS011;9381;54.244;10.074;2023-12-22T02:57:35;5.63;;;1.80;;
18503;SDS011;9381;54.244;10.074;2023-12-22T03:02:35;5.87;;;2.13;;
18503;SDS011;9381;54.244;10.074;2023-12-22T03:07:36;7.10;;;1.80;;
18503;SDS011;9381;54.244;10.074;2023-12-22T03:12:36;10.00;;;2.70;;
18503;SDS011;9381;54.244;10.074;2023-12-22T03:17:36;5.65;;;1.88;;
18503;SDS011;9381;54.244;10.074;2023-12-22T03:22:37;8.10;;;2.43;;
18503;SDS011;9381;54.244;10.074;2023-12-22T03:27:37;10.10;;;3.03;;
18503;SDS011;9381;54.244;10.074;2023-12-22T03:32:38;10.10;;;2.27;;
18503;SDS011;9381;54.244;10.074;2023-12-22T03:37:38;13.30;;;2.33;;
18503;SDS011;9381;54.244;10.074;2023-12-22T03:42:38;14.67;;;2.67;;
18503;SDS011;9381;54.244;10.074;2023-12-22T03:47:39;9.83;;;2.90;;
18503;SDS011;9381;54.244;10.074;2023-12-22T03:52:39;15.10;;;2.90;;
18503;SDS011;9381;54.244;10.074;2023-12-22T03:57:39;15.53;;;3.10;;
18503;SDS011;9381;54.244;10.074;2023-12-22T04:02:40;13.32;;;2.90;;
18503;SDS011;9381;54.244;10.074;2023-12-22T04:07:40;16.97;;;3.37;;
18503;SDS011;9381;54.244;10.074;2023-12-22T04:12:40;21.08;;;3.30;;
18503;SDS011;9381;54.244;10.074;2023-12-22T04:17:41;20.00;;;3.40;;
18503;SDS011;9381;54.244;10.074;2023-12-22T04:22:41;17.87;;;3.63;;
18503;SDS011;9381;54.244;10.074;2023-12-22T04:27:41;19.57;;;4.33;;
18503;SDS011;9381;54.244;10.074;2023-12-22T04:32:42;21.03;;;4.00;;
18503;SDS011;9381;54.244;10.074;2023-12-22T04:37:42;19.87;;;3.00;;
18503;SDS011;9381;54.244;10.074;2023-12-22T04:42:42;14.87;;;3.10;;
18503;SDS011;9381;54.244;10.074;2023-12-22T04:47:43;10.57;;;2.10;;
18503;SDS011;9381;54.244;10.074;2023-12-22T04:52:43;19.50;;;3.17;;
18503;SDS011;9381;54.244;10.074;2023-12-22T04:57:44;17.67;;;3.23;;
18503;SDS011;9381;54.244;10.074;2023-12-22T05:02:44;15.30;;;3.63;;
18503;SDS011;9381;54.244;10.074;2023-12-22T05:07:44;16.67;;;3.03;;
18503;SDS011;9381;54.244;10.074;2023-12-22T05:12:45;12.60;;;3.17;;
18503;SDS011;9381;54.244;10.074;2023-12-22T05:17:45;16.60;;;3.17;;
18503;SDS011;9381;54.244;10.074;2023-12-22T05:22:45;23.85;;;4.32;;
18503;SDS011;9381;54.244;10.074;2023-12-22T05:27:46;28.02;;;4.20;;
18503;SDS011;9381;54.244;10.074;2023-12-22T05:32:46;17.20;;;3.37;;
18503;SDS011;9381;54.244;10.074;2023-12-22T05:37:46;20.37;;;3.97;;
18503;SDS011;9381;54.244;10.074;2023-12-22T05:42:48;24.10;;;4.17;;
18503;SDS011;9381;54.244;10.074;2023-12-22T05:47:48;18.57;;;4.40;;
18503;SDS011;9381;54.244;10.074;2023-12-22T05:52:48;26.08;;;4.55;;
18503;SDS011;9381;54.244;10.074;2023-12-22T05:57:49;23.30;;;5.13;;
18503;SDS011;9381;54.244;10.074;2023-12-22T06:02:49;26.10;;;5.37;;
18503;SDS011;9381;54.244;10.074;2023-12-22T06:07:50;20.30;;;4.23;;
18503;SDS011;9381;54.244;10.074;2023-12-22T06:12:50;27.23;;;4.17;;
18503;SDS011;9381;54.244;10.074;2023-12-22T06:17:50;24.02;;;5.28;;
18503;SDS011;9381;54.244;10.074;2023-12-22T06:22:51;26.53;;;4.73;;
18503;SDS011;9381;54.244;10.074;2023-12-22T06:27:51;21.70;;;5.13;;
18503;SDS011;9381;54.244;10.074;2023-12-22T06:32:51;22.55;;;4.32;;
18503;SDS011;9381;54.244;10.074;2023-12-22T06:37:52;20.20;;;3.97;;
18503;SDS011;9381;54.244;10.074;2023-12-22T06:42:54;19.60;;;3.40;;
18503;SDS011;9381;54.244;10.074;2023-12-22T06:47:54;13.20;;;3.43;;
18503;SDS011;9381;54.244;10.074;2023-12-22T06:52:55;14.20;;;2.97;;
18503;SDS011;9381;54.244;10.074;2023-12-22T06:57:55;14.60;;;3.10;;
18503;SDS011;9381;54.244;10.074;2023-12-22T07:02:56;17.53;;;3.53;;
18503;SDS011;9381;54.244;10.074;2023-12-22T07:07:56;10.80;;;3.10;;
18503;SDS011;9381;54.244;10.074;2023-12-22T07:12:58;12.27;;;2.70;;
18503;SDS011;9381;54.244;10.074;2023-12-22T07:17:58;16.43;;;2.77;;
18503;SDS011;9381;54.244;10.074;2023-12-22T07:22:58;16.37;;;3.33;;
18503;SDS011;9381;54.244;10.074;2023-12-22T07:27:59;10.53;;;2.93;;
18503;SDS011;9381;54.244;10.074;2023-12-22T07:32:59;18.10;;;3.50;;
18503;SDS011;9381;54.244;10.074;2023-12-22T07:38:00;21.13;;;4.27;;
18503;SDS011;9381;54.244;10.074;2023-12-22T07:43:02;16.13;;;3.10;;
18503;SDS011;9381;54.244;10.074;2023-12-22T07:48:04;8.40;;;2.40;;
18503;SDS011;9381;54.244;10.074;2023-12-22T07:53:04;10.70;;;2.63;;
18503;SDS011;9381;54.244;10.074;2023-12-22T07:58:05;9.93;;;2.60;;
18503;SDS011;9381;54.244;10.074;2023-12-22T08:03:05;9.60;;;2.80;;
18503;SDS011;9381;54.244;10.074;2023-12-22T08:08:05;15.50;;;2.70;;
18503;SDS011;9381;54.244;10.074;2023-12-22T08:13:06;15.53;;;3.07;;
18503;SDS011;9381;54.244;10.074;2023-12-22T08:18:06;14.90;;;2.90;;
18503;SDS011;9381;54.244;10.074;2023-12-22T08:23:06;14.70;;;3.30;;
18503;SDS011;9381;54.244;10.074;2023-12-22T08:28:07;9.27;;;3.23;;
18503;SDS011;9381;54.244;10.074;2023-12-22T08:33:07;15.20;;;2.72;;
18503;SDS011;9381;54.244;10.074;2023-12-22T08:38:07;15.13;;;2.87;;
18503;SDS011;9381;54.244;10.074;2023-12-22T08:43:08;12.67;;;3.00;;
18503;SDS011;9381;54.244;10.074;2023-12-22T08:48:08;14.68;;;2.88;;
18503;SDS011;9381;54.244;10.074;2023-12-22T08:53:09;17.53;;;3.33;;
18503;SDS011;9381;54.244;10.074;2023-12-22T08:58:09;11.43;;;2.60;;
18503;SDS011;9381;54.244;10.074;2023-12-22T09:03:09;15.33;;;3.53;;
18503;SDS011;9381;54.244;10.074;2023-12-22T09:08:10;18.40;;;4.17;;
18503;SDS011;9381;54.244;10.074;2023-12-22T09:13:10;17.77;;;3.13;;
18503;SDS011;9381;54.244;10.074;2023-12-22T09:18:11;14.83;;;2.93;;
18503;SDS011;9381;54.244;10.074;2023-12-22T09:23:11;14.70;;;3.30;;
18503;SDS011;9381;54.244;10.074;2023-12-22T09:28:12;13.30;;;2.80;;
18503;SDS011;9381;54.244;10.074;2023-12-22T09:33:12;20.77;;;3.40;;
18503;SDS011;9381;54.244;10.074;2023-12-22T09:38:13;22.30;;;3.53;;
18503;SDS011;9381;54.244;10.074;2023-12-22T09:43:14;14.30;;;3.63;;
18503;SDS011;9381;54.244;10.074;2023-12-22T09:48:15;15.90;;;3.03;;
18503;SDS011;9381;54.244;10.074;2023-12-22T09:53:17;13.00;;;2.60;;
18503;SDS011;9381;54.244;10.074;2023-12-22T09:58:20;13.13;;;3.10;;
18503;SDS011;9381;54.244;10.074;2023-12-22T10:03:22;16.73;;;2.93;;
18503;SDS011;9381;54.244;10.074;2023-12-22T10:08:25;16.37;;;2.90;;
18503;SDS011;9381;54.244;10.074;2023-12-22T10:13:26;9.90;;;2.37;;
18503;SDS011;9381;54.244;10.074;2023-12-22T10:18:28;13.90;;;3.40;;
18503;SDS011;9381;54.244;10.074;2023-12-22T10:23:28;11.33;;;2.67;;
18503;SDS011;9381;54.244;10.074;2023-12-22T10:28:29;12.20;;;2.80;;
18503;SDS011;9381;54.244;10.074;2023-12-22T10:33:29;10.47;;;2.17;;
18503;SDS011;9381;54.244;10.074;2023-12-22T10:38:33;8.43;;;2.17;;
18503;SDS011;9381;54.244;10.074;2023-12-22T10:43:38;9.23;;;2.17;;
18503;SDS011;9381;54.244;10.074;2023-12-22T10:48:39;6.60;;;1.93;;
18503;SDS011;9381;54.244;10.074;2023-12-22T10:53:40;8.07;;;1.93;;
18503;SDS011;9381;54.244;10.074;2023-12-22T10:58:42;10.13;;;2.03;;
18503;SDS011;9381;54.244;10.074;2023-12-22T11:03:43;10.80;;;2.30;;
18503;SDS011;9381;54.244;10.074;2023-12-22T11:08:46;10.33;;;1.70;;
18503;SDS011;9381;54.244;10.074;2023-12-22T11:13:49;4.83;;;1.80;;
18503;SDS011;9381;54.244;10.074;2023-12-22T11:18:52;8.63;;;1.70;;
18503;SDS011;9381;54.244;10.074;2023-12-22T11:23:54;9.43;;;1.90;;
18503;SDS011;9381;54.244;10.074;2023-12-22T11:28:57;7.47;;;2.37;;
18503;SDS011;9381;54.244;10.074;2023-12-22T11:33:59;11.17;;;2.13;;
18503;SDS011;9381;54.244;10.074;2023-12-22T11:39:01;8.20;;;1.93;;
18503;SDS011;9381;54.244;10.074;2023-12-22T11:44:01;10.50;;;2.23;;
18503;SDS011;9381;54.244;10.074;2023-12-22T11:49:05;6.37;;;2.10;;
18503;SDS011;9381;54.244;10.074;2023-12-22T11:54:52;15.50;;;2.10;;
18503;SDS011;9381;54.244;10.074;2023-12-22T11:59:46;11.10;;;2.07;;
18503;SDS011;9381;54.244;10.074;2023-12-22T12:04:53;9.40;;;3.17;;
18503;SDS011;9381;54.244;10.074;2023-12-22T12:09:53;11.83;;;2.97;;
18503;SDS011;9381;54.244;10.074;2023-12-22T12:14:54;12.97;;;2.50;;
18503;SDS011;9381;54.244;10.074;2023-12-22T12:19:58;11.93;;;2.03;;
18503;SDS011;9381;54.244;10.074;2023-12-22T12:24:59;9.40;;;2.23;;
18503;SDS011;9381;54.244;10.074;2023-12-22T12:30:05;9.53;;;2.13;;
18503;SDS011;9381;54.244;10.074;2023-12-22T12:35:09;10.37;;;2.07;;
18503;SDS011;9381;54.244;10.074;2023-12-22T12:40:10;8.10;;;2.53;;
18503;SDS011;9381;54.244;10.074;2023-12-22T12:45:11;9.77;;;2.53;;
18503;SDS011;9381;54.244;10.074;2023-12-22T12:50:11;9.13;;;1.97;;
18503;SDS011;9381;54.244;10.074;2023-12-22T12:55:12;6.87;;;2.30;;
18503;SDS011;9381;54.244;10.074;2023-12-22T13:00:12;9.17;;;2.07;;
18503;SDS011;9381;54.244;10.074;2023-12-22T13:05:20;12.07;;;2.90;;
18503;SDS011;9381;54.244;10.074;2023-12-22T13:10:25;13.27;;;2.90;;
18503;SDS011;9381;54.244;10.074;2023-12-22T13:15:25;10.60;;;2.73;;
18503;SDS011;9381;54.244;10.074;2023-12-22T13:20:27;13.10;;;2.40;;
18503;SDS011;9381;54.244;10.074;2023-12-22T13:25:27;10.90;;;2.47;;
18503;SDS011;9381;54.244;10.074;2023-12-22T13:30:36;10.93;;;2.70;;
18503;SDS011;9381;54.244;10.074;2023-12-22T13:35:40;10.30;;;3.13;;
18503;SDS011;9381;54.244;10.074;2023-12-22T13:40:44;12.40;;;2.70;;
18503;SDS011;9381;54.244;10.074;2023-12-22T13:45:51;15.93;;;2.87;;
18503;SDS011;9381;54.244;10.074;2023-12-22T13:50:55;11.70;;;1.97;;
18503;SDS011;9381;54.244;10.074;2023-12-22T13:55:58;15.70;;;2.73;;
18503;SDS011;9381;54.244;10.074;2023-12-22T14:00:59;16.50;;;2.63;;
18503;SDS011;9381;54.244;10.074;2023-12-22T14:06:13;10.17;;;2.30;;
18503;SDS011;9381;54.244;10.074;2023-12-22T14:11:14;8.50;;;2.30;;
18503;SDS011;9381;54.244;10.074;2023-12-22T14:16:15;13.87;;;3.03;;
18503;SDS011;9381;54.244;10.074;2023-12-22T14:21:15;8.57;;;2.53;;
18503;SDS011;9381;54.244;10.074;2023-12-22T14:26:16;15.00;;;2.53;;
18503;SDS011;9381;54.244;10.074;2023-12-22T14:31:17;9.47;;;2.47;;
18503;SDS011;9381;54.244;10.074;2023-12-22T14:36:17;19.30;;;3.07;;
18503;SDS011;9381;54.244;10.074;2023-12-22T14:41:17;9.37;;;2.63;;
18503;SDS011;9381;54.244;10.074;2023-12-22T14:46:18;12.67;;;3.60;;
18503;SDS011;9381;54.244;10.074;2023-12-22T14:51:18;11.82;;;2.97;;
18503;SDS011;9381;54.244;10.074;2023-12-22T14:56:19;8.10;;;2.30;;
18503;SDS011;9381;54.244;10.074;2023-12-22T15:01:19;9.77;;;2.30;;
18503;SDS011;9381;54.244;10.074;2023-12-22T15:06:19;8.23;;;2.53;;
18503;SDS011;9381;54.244;10.074;2023-12-22T15:11:20;10.00;;;2.63;;
18503;SDS011;9381;54.244;10.074;2023-12-22T15:16:20;10.80;;;2.70;;
18503;SDS011;9381;54.244;10.074;2023-12-22T15:21:21;11.32;;;2.95;;
18503;SDS011;9381;54.244;10.074;2023-12-22T15:26:22;10.07;;;2.90;;
18503;SDS011;9381;54.244;10.074;2023-12-22T15:31:23;18.23;;;2.53;;
18503;SDS011;9381;54.244;10.074;2023-12-22T15:36:24;10.90;;;2.30;;
18503;SDS011;9381;54.244;10.074;2023-12-22T15:41:31;6.57;;;2.00;;
18503;SDS011;9381;54.244;10.074;2023-12-22T15:46:31;9.77;;;2.80;;
18503;SDS011;9381;54.244;10.074;2023-12-22T15:51:32;9.43;;;2.53;;
18503;SDS011;9381;54.244;10.074;2023-12-22T15:56:32;8.40;;;2.10;;
18503;SDS011;9381;54.244;10.074;2023-12-22T16:01:32;9.67;;;2.67;;
18503;SDS011;9381;54.244;10.074;2023-12-22T16:06:33;14.85;;;2.85;;
18503;SDS011;9381;54.244;10.074;2023-12-22T16:11:33;13.07;;;3.00;;
18503;SDS011;9381;54.244;10.074;2023-12-22T16:16:33;10.83;;;2.97;;
18503;SDS011;9381;54.244;10.074;2023-12-22T16:21:39;14.87;;;3.40;;
18503;SDS011;9381;54.244;10.074;2023-12-22T16:26:40;12.27;;;3.43;;
18503;SDS011;9381;54.244;10.074;2023-12-22T16:31:41;14.63;;;3.40;;
18503;SDS011;9381;54.244;10.074;2023-12-22T16:36:44;15.30;;;4.05;;
18503;SDS011;9381;54.244;10.074;2023-12-22T16:41:45;13.57;;;4.37;;
18503;SDS011;9381;54.244;10.074;2023-12-22T16:46:46;13.60;;;3.50;;
18503;SDS011;9381;54.244;10.074;2023-12-22T16:51:46;9.80;;;3.00;;
18503;SDS011;9381;54.244;10.074;2023-12-22T16:56:47;14.77;;;3.53;;
18503;SDS011;9381;54.244;10.074;2023-12-22T17:01:48;16.63;;;2.90;;
18503;SDS011;9381;54.244;10.074;2023-12-22T17:06:49;17.57;;;3.40;;
18503;SDS011;9381;54.244;10.074;2023-12-22T17:11:51;9.30;;;2.83;;
18503;SDS011;9381;54.244;10.074;2023-12-22T17:16:51;12.60;;;4.37;;
18503;SDS011;9381;54.244;10.074;2023-12-22T17:21:52;20.03;;;4.13;;
18503;SDS011;9381;54.244;10.074;2023-12-22T17:26:52;14.20;;;3.20;;
18503;SDS011;9381;54.244;10.074;2023-12-22T17:31:52;13.83;;;3.17;;
18503;SDS011;9381;54.244;10.074;2023-12-22T17:36:56;15.90;;;3.73;;
18503;SDS011;9381;54.244;10.074;2023-12-22T17:41:56;13.50;;;2.50;;
18503;SDS011;9381;54.244;10.074;2023-12-22T17:46:57;14.63;;;5.80;;
18503;SDS011;9381;54.244;10.074;2023-12-22T17:52:02;8.83;;;2.97;;
18503;SDS011;9381;54.244;10.074;2023-12-22T17:57:04;18.63;;;2.57;;
18503;SDS011;9381;54.244;10.074;2023-12-22T18:02:05;13.07;;;3.00;;
18503;SDS011;9381;54.244;10.074;2023-12-22T18:07:06;12.70;;;2.93;;
18503;SDS011;9381;54.244;10.074;2023-12-22T18:12:06;10.27;;;3.27;;
18503;SDS011;9381;54.244;10.074;2023-12-22T18:17:07;9.67;;;3.57;;
18503;SDS011;9381;54.244;10.074;2023-12-22T18:22:07;10.47;;;2.87;;
18503;SDS011;9381;54.244;10.074;2023-12-22T18:27:07;11.30;;;2.67;;
18503;SDS011;9381;54.244;10.074;2023-12-22T18:32:08;8.43;;;2.17;;
18503;SDS011;9381;54.244;10.074;2023-12-22T18:37:08;11.40;;;2.20;;
18503;SDS011;9381;54.244;10.074;2023-12-22T18:42:09;8.80;;;2.80;;
18503;SDS011;9381;54.244;10.074;2023-12-22T18:47:09;9.10;;;2.77;;
18503;SDS011;9381;54.244;10.074;2023-12-22T18:52:09;11.43;;;3.93;;
18503;SDS011;9381;54.244;10.074;2023-12-22T18:57:10;11.90;;;4.87;;
18503;SDS011;9381;54.244;10.074;2023-12-22T19:02:10;8.17;;;3.60;;
18503;SDS011;9381;54.244;10.074;2023-12-22T19:07:10;8.63;;;2.97;;
18503;SDS011;9381;54.244;10.074;2023-12-22T19:12:11;6.50;;;2.80;;
18503;SDS011;9381;54.244;10.074;2023-12-22T19:17:11;8.88;;;2.78;;
18503;SDS011;9381;54.244;10.074;2023-12-22T19:22:11;8.63;;;3.40;;
18503;SDS011;9381;54.244;10.074;2023-12-22T19:27:12;6.53;;;2.70;;
18503;SDS011;9381;54.244;10.074;2023-12-22T19:32:12;11.10;;;3.00;;
18503;SDS011;9381;54.244;10.074;2023-12-22T19:37:12;6.70;;;2.70;;
18503;SDS011;9381;54.244;10.074;2023-12-22T19:42:17;13.83;;;2.47;;
18503;SDS011;9381;54.244;10.074;2023-12-22T19:47:18;8.20;;;2.43;;
18503;SDS011;9381;54.244;10.074;2023-12-22T19:52:18;8.30;;;2.33;;
18503;SDS011;9381;54.244;10.074;2023-12-22T19:57:19;7.57;;;2.37;;
18503;SDS011;9381;54.244;10.074;2023-12-22T20:02:19;9.23;;;2.50;;
18503;SDS011;9381;54.244;10.074;2023-12-22T20:07:20;5.50;;;2.20;;
18503;SDS011;9381;54.244;10.074;2023-12-22T20:12:20;6.40;;;1.90;;
18503;SDS011;9381;54.244;10.074;2023-12-22T20:17:21;4.90;;;1.80;;
18503;SDS011;9381;54.244;10.074;2023-12-22T20:22:21;3.03;;;1.80;;
18503;SDS011;9381;54.244;10.074;2023-12-22T20:27:22;6.80;;;1.80;;
18503;SDS011;9381;54.244;10.074;2023-12-22T20:32:22;7.10;;;2.03;;
18503;SDS011;9381;54.244;10.074;2023-12-22T20:37:22;10.87;;;3.00;;
18503;SDS011;9381;54.244;10.074;2023-12-22T20:42:23;5.82;;;2.30;;
18503;SDS011;9381;54.244;10.074;2023-12-22T20:47:23;3.37;;;1.80;;
18503;SDS011;9381;54.244;10.074;2023-12-22T20:52:24;3.93;;;1.40;;
18503;SDS011;9381;54.244;10.074;2023-12-22T20:57:24;4.67;;;1.40;;
18503;SDS011;9381;54.244;10.074;2023-12-22T21:02:24;5.10;;;1.50;;
18503;SDS011;9381;54.244;10.074;2023-12-22T21:07:25;2.97;;;1.10;;
18503;SDS011;9381;54.244;10.074;2023-12-22T21:12:26;3.17;;;1.20;;
18503;SDS011;9381;54.244;10.074;2023-12-22T21:17:26;4.93;;;1.50;;
18503;SDS011;9381;54.244;10.074;2023-12-22T21:22:26;4.93;;;1.80;;
18503;SDS011;9381;54.244;10.074;2023-12-22T21:27:26;4.47;;;1.27;;
18503;SDS011;9381;54.244;10.074;2023-12-22T21:32:27;4.63;;;1.60;;
18503;SDS011;9381;54.244;10.074;2023-12-22T21:37:27;4.47;;;1.80;;
18503;SDS011;9381;54.244;10.074;2023-12-22T21:42:28;3.65;;;1.30;;
18503;SDS011;9381;54.244;10.074;2023-12-22T21:47:28;7.93;;;2.00;;
18503;SDS011;9381;54.244;10.074;2023-12-22T21:52:29;4.90;;;1.60;;
18503;SDS011;9381;54.244;10.074;2023-12-22T21:57:29;6.77;;;1.47;;
18503;SDS011;9381;54.244;10.074;2023-12-22T22:02:29;8.57;;;1.50;;
18503;SDS011;9381;54.244;10.074;2023-12-22T22:07:30;9.13;;;1.92;;
18503;SDS011;9381;54.244;10.074;2023-12-22T22:12:30;4.47;;;1.40;;
18503;SDS011;9381;54.244;10.074;2023-12-22T22:17:30;5.77;;;1.93;;
18503;SDS011;9381;54.244;10.074;2023-12-22T22:22:31;5.37;;;1.50;;
18503;SDS011;9381;54.244;10.074;2023-12-22T22:27:31;5.40;;;1.70;;
18503;SDS011;9381;54.244;10.074;2023-12-22T22:32:32;5.03;;;1.80;;
18503;SDS011;9381;54.244;10.074;2023-12-22T22:37:32;5.80;;;1.30;;
18503;SDS011;9381;54.244;10.074;2023-12-22T22:42:33;10.73;;;1.65;;
18503;SDS011;9381;54.244;10.074;2023-12-22T22:47:33;4.10;;;1.10;;
18503;SDS011;9381;54.244;10.074;2023-12-22T22:52:34;4.40;;;1.40;;
18503;SDS011;9381;54.244;10.074;2023-12-22T22:57:34;4.97;;;1.40;;
18503;SDS011;9381;54.244;10.074;2023-12-22T23:02:34;3.73;;;1.30;;
18503;SDS011;9381;54.244;10.074;2023-12-22T23:07:34;4.45;;;1.52;;
18503;SDS011;9381;54.244;10.074;2023-12-22T23:12:35;3.80;;;1.47;;
18503;SDS011;9381;54.244;10.074;2023-12-22T23:17:35;3.70;;;1.17;;
18503;SDS011;9381;54.244;10.074;2023-12-22T23:22:36;2.23;;;0.90;;
18503;SDS011;9381;54.244;10.074;2023-12-22T23:27:36;6.00;;;1.40;;
18503;SDS011;9381;54.244;10.074;2023-12-22T23:32:36;7.43;;;1.47;;
18503;SDS011;9381;54.244;10.074;2023-12-22T23:37:37;6.72;;;1.20;;
18503;SDS011;9381;54.244;10.074;2023-12-22T23:42:37;4.20;;;1.20;;
18503;SDS011;9381;54.244;10.074;2023-12-22T23:47:37;2.27;;;1.10;;
18503;SDS011;9381;54.244;10.074;2023-12-22T23:52:38;3.20;;;0.87;;
18503;SDS011;9381;54.244;10.074;2023-12-22T23:57:38;2.77;;;1.10;;
